Time;durP1;ratioP1;P1;durP2;ratioP2;P2;SDS_P1;SDS_P2;PMS_P1;PMS_P2;Temp;Humidity;BMP_temperature;BMP_pressure;BME280_temperature;BME280_humidity;BME280_pressure;Samples;Min_cycle;Max_cycle;Signal;HPM_P1;HPM_P2
2021/09/24 00:01:01;;;;;;;2.20;1.70;;;18.50;59.30;;;;;;5039426;28;20238;-81
2021/09/24 00:03:29;;;;;;;2.53;1.67;;;18.50;59.50;;;;;;5040083;28;20655;-81
2021/09/24 00:05:54;;;;;;;3.08;1.60;;;18.50;59.50;;;;;;5041480;28;20163;-81
2021/09/24 00:08:21;;;;;;;2.03;1.60;;;18.60;59.60;;;;;;5039983;28;20159;-80
2021/09/24 00:10:47;;;;;;;1.88;1.67;;;18.50;59.50;;;;;;5038667;28;20684;-81
2021/09/24 00:13:12;;;;;;;1.90;1.60;;;18.50;59.60;;;;;;5022496;28;20171;-81
2021/09/24 00:15:39;;;;;;;1.88;1.60;;;18.50;59.60;;;;;;5039352;28;20534;-81
2021/09/24 00:18:05;;;;;;;1.88;1.52;;;18.50;59.60;;;;;;5022800;28;20647;-81
2021/09/24 00:20:31;;;;;;;1.75;1.65;;;18.50;59.70;;;;;;5039188;28;20159;-81
2021/09/24 00:22:57;;;;;;;2.72;1.67;;;18.50;59.60;;;;;;5039067;28;20190;-81
2021/09/24 00:25:22;;;;;;;2.08;1.42;;;18.50;59.80;;;;;;5022835;28;20174;-81
2021/09/24 00:27:49;;;;;;;2.25;1.67;;;18.50;59.70;;;;;;5024313;28;20166;-81
2021/09/24 00:30:16;;;;;;;2.60;1.95;;;18.50;59.50;;;;;;5043773;28;20158;-82
2021/09/24 00:32:42;;;;;;;1.90;1.70;;;18.50;59.60;;;;;;5043177;28;20624;-81
2021/09/24 00:35:08;;;;;;;2.05;1.60;;;18.50;59.70;;;;;;5059238;28;20162;-81
2021/09/24 00:37:34;;;;;;;1.98;1.75;;;18.40;59.80;;;;;;5046134;28;20247;-82
2021/09/24 00:40:00;;;;;;;2.00;1.50;;;18.40;59.80;;;;;;5029416;28;20628;-82
2021/09/24 00:42:26;;;;;;;2.50;1.83;;;18.40;59.70;;;;;;5063288;28;20181;-81
2021/09/24 00:44:52;;;;;;;1.63;1.45;;;18.50;59.80;;;;;;5046955;28;20162;-81
2021/09/24 00:47:20;;;;;;;1.50;1.40;;;18.50;59.80;;;;;;5046676;28;20166;-81
2021/09/24 00:49:46;;;;;;;2.20;1.73;;;18.50;59.80;;;;;;5063621;28;20169;-81
2021/09/24 00:52:12;;;;;;;2.83;1.67;;;18.40;59.80;;;;;;5030158;28;20201;-81
2021/09/24 00:54:39;;;;;;;1.63;1.50;;;18.40;59.60;;;;;;5062740;28;20229;-81
2021/09/24 00:57:04;;;;;;;2.13;1.70;;;18.40;59.70;;;;;;5063537;28;20166;-81
2021/09/24 00:59:30;;;;;;;1.73;1.55;;;18.40;59.70;;;;;;5062670;28;20575;-81
2021/09/24 01:01:57;;;;;;;2.60;1.55;;;18.40;59.70;;;;;;5046118;28;20155;-81
2021/09/24 01:04:23;;;;;;;1.85;1.50;;;18.50;59.70;;;;;;5046393;28;20161;-81
2021/09/24 01:06:49;;;;;;;2.28;1.80;;;18.40;59.60;;;;;;5030268;28;20166;-81
2021/09/24 01:09:17;;;;;;;2.00;1.70;;;18.50;59.70;;;;;;5046151;28;20158;-81
2021/09/24 01:11:44;;;;;;;3.20;1.90;;;18.40;59.60;;;;;;5046215;28;20232;-81
2021/09/24 01:14:10;;;;;;;2.22;1.70;;;18.40;59.80;;;;;;5046201;28;20150;-81
2021/09/24 01:16:37;;;;;;;1.60;1.50;;;18.40;59.70;;;;;;5046227;28;20154;-81
2021/09/24 01:19:04;;;;;;;2.28;1.77;;;18.40;59.80;;;;;;5029938;28;20185;-81
2021/09/24 01:21:31;;;;;;;1.60;1.40;;;18.50;59.80;;;;;;5046273;28;20604;-80
2021/09/24 01:23:58;;;;;;;2.20;1.77;;;18.40;59.60;;;;;;5046625;28;20601;-80
2021/09/24 01:26:24;;;;;;;2.17;1.63;;;18.40;59.60;;;;;;5046565;28;20180;-81
2021/09/24 01:28:51;;;;;;;3.70;1.77;;;18.40;59.70;;;;;;5062929;28;20158;-82
2021/09/24 01:31:19;;;;;;;2.05;1.80;;;18.40;59.70;;;;;;5028910;28;20251;-81
2021/09/24 01:33:47;;;;;;;2.38;1.73;;;18.40;59.70;;;;;;5045632;28;20185;-81
2021/09/24 01:36:18;;;;;;;2.05;1.42;;;18.30;59.60;;;;;;5044999;28;20161;-81
2021/09/24 01:38:44;;;;;;;1.50;1.40;;;18.40;59.60;;;;;;5063139;28;20216;-81
2021/09/24 01:41:11;;;;;;;1.92;1.63;;;18.50;59.80;;;;;;5063834;28;20154;-82
2021/09/24 01:43:36;;;;;;;2.75;1.73;;;18.40;59.70;;;;;;5061988;28;20162;-81
2021/09/24 01:46:03;;;;;;;1.75;1.45;;;18.40;59.70;;;;;;5028505;28;20230;-82
2021/09/24 01:48:31;;;;;;;2.15;1.77;;;18.40;59.80;;;;;;5046028;28;20241;-80
2021/09/24 01:50:58;;;;;;;2.00;1.65;;;18.40;59.70;;;;;;5051692;28;20185;-81
2021/09/24 01:53:24;;;;;;;2.58;1.70;;;18.40;59.70;;;;;;5067431;28;20151;-81
2021/09/24 01:55:49;;;;;;;2.60;1.63;;;18.40;59.70;;;;;;5051248;28;20551;-81
2021/09/24 01:58:15;;;;;;;1.88;1.70;;;18.40;59.80;;;;;;5050197;28;20186;-81
2021/09/24 02:00:42;;;;;;;1.75;1.63;;;18.30;59.80;;;;;;5051439;28;20245;-81
2021/09/24 02:03:08;;;;;;;1.80;1.50;;;18.40;59.80;;;;;;5067601;28;20161;-81
2021/09/24 02:05:33;;;;;;;2.40;1.48;;;18.40;59.80;;;;;;5051077;28;20158;-81
2021/09/24 02:07:59;;;;;;;1.63;1.50;;;18.40;59.80;;;;;;5067638;28;20190;-81
2021/09/24 02:10:25;;;;;;;2.75;1.67;;;18.40;59.90;;;;;;5050258;28;20209;-81
2021/09/24 02:12:57;;;;;;;1.92;1.50;;;18.40;59.80;;;;;;5050996;28;20281;-81
2021/09/24 02:15:26;;;;;;;2.90;1.48;;;18.30;59.80;;;;;;5034347;28;20166;-81
2021/09/24 02:17:54;;;;;;;1.80;1.60;;;18.30;59.80;;;;;;5068282;28;20150;-81
2021/09/24 02:20:22;;;;;;;1.80;1.60;;;18.40;59.90;;;;;;5050801;28;20158;-81
2021/09/24 02:22:49;;;;;;;2.30;1.80;;;18.40;59.90;;;;;;5050050;28;20158;-81
2021/09/24 02:25:17;;;;;;;1.80;1.70;;;18.40;59.80;;;;;;5068590;28;20162;-81
2021/09/24 02:27:43;;;;;;;1.50;1.40;;;18.40;59.80;;;;;;5050500;28;20165;-81
2021/09/24 02:30:10;;;;;;;2.40;1.55;;;18.40;59.80;;;;;;5034087;28;20174;-81
2021/09/24 02:32:37;;;;;;;1.88;1.52;;;18.40;59.90;;;;;;5049976;28;20554;-80
2021/09/24 02:35:05;;;;;;;1.58;1.48;;;18.30;59.80;;;;;;5033999;28;20170;-81
2021/09/24 02:37:33;;;;;;;1.95;1.75;;;18.40;60.00;;;;;;5067043;28;20613;-81
2021/09/24 02:40:02;;;;;;;2.35;1.73;;;18.40;59.90;;;;;;5033499;28;20165;-81
2021/09/24 02:42:28;;;;;;;2.42;1.70;;;18.30;59.90;;;;;;5049705;28;20166;-81
2021/09/24 02:44:53;;;;;;;2.05;1.63;;;18.30;59.90;;;;;;5033266;28;20223;-80
2021/09/24 02:47:20;;;;;;;2.00;1.80;;;18.30;59.90;;;;;;5050529;28;20163;-81
2021/09/24 02:49:47;;;;;;;1.77;1.63;;;18.30;59.90;;;;;;5065946;28;20643;-80
2021/09/24 02:52:13;;;;;;;2.63;1.50;;;18.30;59.90;;;;;;5049278;28;20184;-81
2021/09/24 02:54:39;;;;;;;2.33;1.70;;;18.40;60.00;;;;;;5065788;28;20150;-81
2021/09/24 02:57:06;;;;;;;1.73;1.60;;;18.40;60.00;;;;;;5049634;28;20154;-81
2021/09/24 02:59:32;;;;;;;1.83;1.58;;;18.30;59.90;;;;;;5049507;28;20204;-81
2021/09/24 03:01:58;;;;;;;1.90;1.65;;;18.30;59.90;;;;;;5049826;28;20165;-81
2021/09/24 03:04:25;;;;;;;2.05;1.60;;;18.30;59.90;;;;;;5065632;28;20162;-81
2021/09/24 03:06:51;;;;;;;3.05;1.60;;;18.30;59.90;;;;;;5048304;28;20158;-80
2021/09/24 03:09:17;;;;;;;1.90;1.58;;;18.40;59.70;;;;;;5065155;28;20162;-80
2021/09/24 03:11:43;;;;;;;1.92;1.30;;;18.40;59.60;;;;;;5032241;28;20249;-81
2021/09/24 03:14:09;;;;;;;1.58;1.30;;;18.50;59.60;;;;;;5033169;28;20170;-81
2021/09/24 03:16:37;;;;;;;1.45;1.23;;;18.40;59.30;;;;;;5048084;28;20158;-81
2021/09/24 03:19:05;;;;;;;1.83;1.60;;;18.40;59.40;;;;;;5065544;28;20146;-81
2021/09/24 03:21:30;;;;;;;2.35;1.50;;;18.40;59.30;;;;;;5031599;28;20531;-81
2021/09/24 03:23:57;;;;;;;1.70;1.45;;;18.40;59.40;;;;;;5065049;28;20189;-81
2021/09/24 03:26:23;;;;;;;1.73;1.58;;;18.50;59.40;;;;;;5065233;28;20166;-81
2021/09/24 03:28:50;;;;;;;1.60;1.50;;;18.50;59.40;;;;;;5048044;28;20194;-81
2021/09/24 03:31:16;;;;;;;1.45;1.20;;;18.40;59.30;;;;;;5047866;28;20185;-81
2021/09/24 03:33:43;;;;;;;1.65;1.42;;;18.40;59.20;;;;;;5048190;28;20172;-81
2021/09/24 03:36:09;;;;;;;1.48;1.17;;;18.40;59.20;;;;;;5047568;28;20166;-80
2021/09/24 03:38:35;;;;;;;1.88;1.08;;;18.40;59.20;;;;;;5048226;28;20186;-81
2021/09/24 03:41:00;;;;;;;2.45;1.60;;;18.50;59.10;;;;;;5031304;28;20176;-81
2021/09/24 03:43:26;;;;;;;2.38;1.70;;;18.40;59.20;;;;;;5031999;28;20220;-81
2021/09/24 03:45:52;;;;;;;2.53;1.50;;;18.50;59.20;;;;;;5048404;28;20237;-81
2021/09/24 03:48:17;;;;;;;2.58;1.40;;;18.40;59.20;;;;;;5064512;28;20170;-81
2021/09/24 03:50:43;;;;;;;1.38;1.27;;;18.50;59.30;;;;;;5064105;28;20725;-81
2021/09/24 03:53:09;;;;;;;1.67;1.45;;;18.40;59.20;;;;;;5064653;28;20154;-81
2021/09/24 03:55:35;;;;;;;1.30;1.17;;;18.40;59.10;;;;;;5047491;28;20166;-81
2021/09/24 03:58:01;;;;;;;1.50;1.40;;;18.50;59.10;;;;;;5031744;28;20181;-81
2021/09/24 04:00:28;;;;;;;1.55;1.13;;;18.50;59.10;;;;;;5047912;28;20154;-81
2021/09/24 04:02:53;;;;;;;1.38;1.27;;;18.40;58.90;;;;;;5064270;28;20185;-81
2021/09/24 04:05:19;;;;;;;1.55;1.20;;;18.50;59.00;;;;;;5031782;28;20158;-81
2021/09/24 04:07:46;;;;;;;2.67;1.38;;;18.40;59.10;;;;;;5065691;28;20150;-81
2021/09/24 04:10:11;;;;;;;2.25;1.48;;;18.50;59.20;;;;;;5047389;28;20169;-81
2021/09/24 04:12:39;;;;;;;1.52;1.30;;;18.40;59.20;;;;;;5047933;28;20292;-81
2021/09/24 04:15:08;;;;;;;1.85;0.90;;;18.40;59.50;;;;;;5031369;28;20179;-81
2021/09/24 04:17:34;;;;;;;1.67;1.30;;;18.40;59.00;;;;;;5047734;28;20158;-81
2021/09/24 04:19:59;;;;;;;1.58;1.35;;;18.40;59.20;;;;;;5031449;28;20169;-81
2021/09/24 04:22:25;;;;;;;1.50;1.40;;;18.40;59.10;;;;;;5030965;28;20170;-81
2021/09/24 04:24:57;;;;;;;1.25;1.15;;;18.40;58.90;;;;;;5064091;28;20154;-81
2021/09/24 04:27:23;;;;;;;1.13;1.00;;;18.40;59.10;;;;;;5047516;28;20166;-82
2021/09/24 04:29:51;;;;;;;1.48;1.20;;;18.40;59.00;;;;;;5064153;28;20162;-80
2021/09/24 04:32:20;;;;;;;1.77;1.40;;;18.40;59.30;;;;;;5031968;28;20201;-80
2021/09/24 04:34:46;;;;;;;2.95;1.35;;;18.40;59.10;;;;;;5063210;28;20185;-80
2021/09/24 04:37:12;;;;;;;1.90;1.35;;;18.40;58.90;;;;;;5030456;28;20660;-81
2021/09/24 04:39:38;;;;;;;1.50;1.20;;;18.40;59.20;;;;;;5046891;28;20166;-80
2021/09/24 04:42:04;;;;;;;1.25;1.15;;;18.40;59.10;;;;;;5064774;28;20154;-81
2021/09/24 04:44:31;;;;;;;1.20;1.10;;;18.40;59.00;;;;;;5047438;28;20166;-81
2021/09/24 04:46:57;;;;;;;1.55;1.27;;;18.40;59.10;;;;;;5065241;28;20245;-81
2021/09/24 04:49:23;;;;;;;1.85;1.30;;;18.40;59.00;;;;;;5047413;28;20509;-81
2021/09/24 04:51:49;;;;;;;1.25;1.10;;;18.40;58.90;;;;;;5047026;28;20236;-81
2021/09/24 04:54:16;;;;;;;1.30;1.20;;;18.40;58.90;;;;;;5030747;28;20162;-80
2021/09/24 04:56:41;;;;;;;1.58;1.40;;;18.40;59.10;;;;;;5063622;28;20167;-81
2021/09/24 04:59:08;;;;;;;1.20;1.10;;;18.40;59.00;;;;;;5047399;28;20155;-80
2021/09/24 05:01:34;;;;;;;1.52;1.30;;;18.40;59.00;;;;;;5030975;28;20177;-81
2021/09/24 05:03:59;;;;;;;1.73;1.17;;;18.40;58.90;;;;;;5046439;28;20163;-81
2021/09/24 05:06:26;;;;;;;1.70;1.38;;;18.40;59.00;;;;;;5045485;28;20159;-80
2021/09/24 05:08:56;;;;;;;1.30;1.13;;;18.40;59.30;;;;;;5059258;28;20169;-80
2021/09/24 05:11:21;;;;;;;1.25;1.15;;;18.40;58.70;;;;;;5060891;28;20225;-80
2021/09/24 05:13:49;;;;;;;1.98;1.40;;;18.40;59.00;;;;;;5062467;28;20198;-80
2021/09/24 05:16:15;;;;;;;1.48;1.08;;;18.40;58.90;;;;;;5065317;28;20154;-81
2021/09/24 05:18:42;;;;;;;0.98;0.95;;;18.40;58.90;;;;;;5065916;28;20193;-79
2021/09/24 05:21:12;;;;;;;1.58;1.40;;;18.40;58.90;;;;;;5056718;28;20237;-80
2021/09/24 05:23:38;;;;;;;1.23;0.95;;;18.40;58.90;;;;;;5050048;28;20228;-78
2021/09/24 05:26:04;;;;;;;1.17;1.08;;;18.50;58.90;;;;;;5067239;28;20226;-78
2021/09/24 05:28:30;;;;;;;1.10;1.00;;;18.40;58.60;;;;;;5068665;28;20161;-78
2021/09/24 05:30:57;;;;;;;1.30;1.02;;;18.50;59.00;;;;;;5050855;28;20193;-78
2021/09/24 05:33:23;;;;;;;1.27;1.13;;;18.40;58.80;;;;;;5066858;28;20211;-78
2021/09/24 05:35:53;;;;;;;1.73;1.10;;;18.40;58.70;;;;;;5081142;28;20165;-80
2021/09/24 05:38:21;;;;;;;1.75;1.33;;;18.50;58.80;;;;;;5061156;28;20253;-79
2021/09/24 05:40:46;;;;;;;1.17;1.08;;;18.40;58.70;;;;;;5065274;28;20166;-78
2021/09/24 05:43:12;;;;;;;1.10;1.00;;;18.40;59.00;;;;;;5065349;28;20220;-80
2021/09/24 05:45:40;;;;;;;1.55;1.30;;;18.50;59.40;;;;;;5062317;28;20158;-80
2021/09/24 05:48:06;;;;;;;1.50;1.40;;;18.50;59.40;;;;;;5063288;28;20218;-82
2021/09/24 05:50:33;;;;;;;1.60;1.40;;;18.40;59.30;;;;;;5062702;28;20565;-83
2021/09/24 05:53:02;;;;;;;1.35;1.17;;;18.40;59.40;;;;;;5046000;28;20189;-80
2021/09/24 05:55:28;;;;;;;1.10;1.00;;;18.40;59.40;;;;;;5063149;28;20628;-79
2021/09/24 05:57:55;;;;;;;1.25;1.15;;;18.50;59.50;;;;;;5064403;28;20158;-81
2021/09/24 06:00:22;;;;;;;1.38;1.13;;;18.50;59.40;;;;;;5062903;28;20159;-79
2021/09/24 06:02:49;;;;;;;1.33;1.20;;;18.40;59.30;;;;;;5064127;28;20165;-81
2021/09/24 06:05:15;;;;;;;1.50;1.20;;;18.40;59.40;;;;;;5063358;28;20162;-79
2021/09/24 06:07:43;;;;;;;1.40;1.10;;;18.40;59.30;;;;;;5045078;28;20162;-80
2021/09/24 06:10:09;;;;;;;2.17;1.50;;;18.40;59.30;;;;;;5060264;28;20554;-80
2021/09/24 06:12:35;;;;;;;1.20;1.10;;;18.40;59.30;;;;;;5044185;28;20186;-80
2021/09/24 06:15:02;;;;;;;1.48;1.38;;;18.40;59.40;;;;;;5058505;28;20161;-82
2021/09/24 06:17:35;;;;;;;1.27;1.00;;;18.40;59.40;;;;;;5046195;28;20175;-81
2021/09/24 06:20:09;;;;;;;1.35;1.10;;;18.40;59.20;;;;;;5053077;28;20161;-82
2021/09/24 06:22:36;;;;;;;1.10;1.00;;;18.50;59.30;;;;;;5052912;28;20629;-82
2021/09/24 06:25:03;;;;;;;1.25;1.02;;;18.50;59.40;;;;;;5035056;28;20182;-80
2021/09/24 06:27:33;;;;;;;1.48;1.25;;;18.40;59.50;;;;;;5030267;28;20182;-80
2021/09/24 06:29:59;;;;;;;1.40;1.20;;;18.40;59.30;;;;;;5031140;28;20217;-81
2021/09/24 06:32:25;;;;;;;1.65;0.90;;;18.40;59.40;;;;;;5037603;28;20308;-80
2021/09/24 06:34:51;;;;;;;1.67;1.13;;;18.40;59.10;;;;;;5051615;28;20161;-78
2021/09/24 06:37:18;;;;;;;1.45;1.20;;;18.40;59.20;;;;;;5067287;28;20211;-78
2021/09/24 06:39:46;;;;;;;1.40;1.25;;;18.40;59.10;;;;;;5051105;28;20181;-79
2021/09/24 06:42:13;;;;;;;1.40;1.00;;;18.40;59.20;;;;;;5066404;28;20189;-80
2021/09/24 06:44:39;;;;;;;1.95;1.15;;;18.40;59.30;;;;;;5042329;28;20174;-79
2021/09/24 06:47:06;;;;;;;1.67;1.05;;;18.40;59.00;;;;;;5063912;28;20186;-79
2021/09/24 06:49:32;;;;;;;1.13;1.02;;;18.50;59.10;;;;;;5047870;28;20167;-79
2021/09/24 06:51:57;;;;;;;1.55;1.33;;;18.50;59.10;;;;;;5031712;28;20312;-80
2021/09/24 06:54:24;;;;;;;1.20;1.00;;;18.50;59.30;;;;;;5033574;28;20194;-78
2021/09/24 06:56:50;;;;;;;2.38;1.13;;;18.40;59.20;;;;;;5034813;28;20783;-79
2021/09/24 06:59:15;;;;;;;2.00;1.00;;;18.50;58.90;;;;;;5037805;28;20170;-85
2021/09/24 07:01:56;;;;;;;1.30;1.10;;;18.50;58.90;;;;;;5021147;28;20247;-83
2021/09/24 07:04:25;;;;;;;1.27;1.10;;;18.40;58.90;;;;;;5006169;28;20199;-81
2021/09/24 07:06:53;;;;;;;1.65;1.13;;;18.50;59.00;;;;;;5039368;28;20323;-81
2021/09/24 07:09:19;;;;;;;1.63;1.00;;;18.50;59.10;;;;;;5041013;28;20296;-80
2021/09/24 07:11:48;;;;;;;0.88;0.80;;;18.50;59.10;;;;;;5063381;28;20249;-78
2021/09/24 07:14:15;;;;;;;1.55;1.35;;;18.50;59.20;;;;;;5054792;28;20157;-81
2021/09/24 07:16:41;;;;;;;1.10;1.00;;;18.40;59.10;;;;;;5035462;28;20213;-82
2021/09/24 07:19:07;;;;;;;0.95;0.90;;;18.40;59.10;;;;;;5054398;28;20618;-82
2021/09/24 07:21:32;;;;;;;1.70;0.98;;;18.50;59.10;;;;;;5052878;28;20158;-82
2021/09/24 07:23:58;;;;;;;1.40;1.20;;;18.40;59.20;;;;;;5037603;28;20162;-82
2021/09/24 07:26:26;;;;;;;1.00;0.90;;;18.40;59.20;;;;;;5055352;28;20647;-82
2021/09/24 07:28:53;;;;;;;1.10;1.00;;;18.40;59.00;;;;;;5054041;28;20161;-83
2021/09/24 07:31:18;;;;;;;1.60;1.20;;;18.40;59.10;;;;;;5037789;28;20193;-84
2021/09/24 07:33:44;;;;;;;1.20;1.00;;;18.40;58.90;;;;;;5053170;28;20158;-84
2021/09/24 07:36:11;;;;;;;1.10;0.80;;;18.50;58.90;;;;;;5054093;28;20228;-84
2021/09/24 07:38:36;;;;;;;1.60;1.30;;;18.40;59.20;;;;;;5052732;28;20190;-83
2021/09/24 07:41:02;;;;;;;1.02;0.93;;;18.50;59.30;;;;;;5054057;28;20169;-85
2021/09/24 07:43:28;;;;;;;0.98;0.90;;;18.50;59.00;;;;;;5052677;28;20169;-81
2021/09/24 07:45:56;;;;;;;1.60;1.20;;;18.50;59.00;;;;;;5052281;28;20162;-84
2021/09/24 07:48:22;;;;;;;1.33;1.10;;;18.50;59.10;;;;;;5052359;28;20515;-81
2021/09/24 07:50:47;;;;;;;4.43;1.40;;;18.50;59.30;;;;;;5053520;28;20162;-83
2021/09/24 07:53:13;;;;;;;1.45;1.10;;;18.40;59.20;;;;;;5053359;28;20146;-83
2021/09/24 07:55:39;;;;;;;3.60;1.17;;;18.40;58.90;;;;;;5054984;28;20185;-83
2021/09/24 07:58:04;;;;;;;3.22;1.33;;;18.40;59.40;;;;;;5055002;28;20518;-82
2021/09/24 08:00:35;;;;;;;4.25;1.35;;;18.50;59.30;;;;;;5054830;28;20166;-83
2021/09/24 08:03:02;;;;;;;16.02;2.00;;;18.50;59.10;;;;;;5037744;28;20631;-82
2021/09/24 08:05:28;;;;;;;8.02;1.50;;;18.50;59.50;;;;;;5053664;28;20177;-83
2021/09/24 08:07:53;;;;;;;17.85;2.25;;;18.40;59.30;;;;;;5054276;28;20151;-82
2021/09/24 08:10:19;;;;;;;20.75;2.95;;;18.50;59.40;;;;;;5054464;28;20154;-82
2021/09/24 08:12:45;;;;;;;16.27;2.40;;;18.40;59.50;;;;;;5053632;28;20665;-81
2021/09/24 08:15:11;;;;;;;19.90;1.83;;;18.40;59.20;;;;;;5054093;28;20239;-80
2021/09/24 08:17:37;;;;;;;12.30;2.00;;;18.40;59.70;;;;;;5052790;28;20181;-82
2021/09/24 08:20:03;;;;;;;11.45;2.00;;;18.40;59.70;;;;;;5053692;28;20166;-81
2021/09/24 08:22:32;;;;;;;27.83;2.35;;;18.40;59.40;;;;;;5053934;28;20166;-82
2021/09/24 08:24:57;;;;;;;11.65;1.70;;;18.50;59.70;;;;;;5053946;28;20151;-81
2021/09/24 08:27:23;;;;;;;9.98;1.83;;;18.50;59.80;;;;;;5060566;28;20504;-81
2021/09/24 08:29:49;;;;;;;12.18;1.83;;;18.50;59.50;;;;;;5058189;28;20161;-79
2021/09/24 08:32:15;;;;;;;8.07;1.90;;;18.40;59.40;;;;;;5057849;28;20549;-80
2021/09/24 08:34:41;;;;;;;11.20;1.15;;;18.50;59.70;;;;;;5057977;28;20150;-81
2021/09/24 08:37:07;;;;;;;6.90;1.63;;;18.50;59.30;;;;;;5055442;28;20264;-83
2021/09/24 08:39:32;;;;;;;10.45;1.63;;;18.50;59.80;;;;;;5057028;28;20275;-82
2021/09/24 08:41:58;;;;;;;7.00;1.60;;;18.50;59.80;;;;;;5038702;28;20246;-83
2021/09/24 08:44:24;;;;;;;4.45;1.40;;;18.50;59.70;;;;;;5057083;28;20566;-85
2021/09/24 08:46:50;;;;;;;7.35;1.45;;;18.50;59.80;;;;;;5059110;28;20168;-82
2021/09/24 08:49:17;;;;;;;4.93;1.38;;;18.50;59.80;;;;;;5057206;28;20237;-83
2021/09/24 08:51:45;;;;;;;8.18;1.45;;;18.50;59.80;;;;;;5060563;28;20178;-81
2021/09/24 08:54:10;;;;;;;4.68;1.13;;;18.50;59.50;;;;;;5041704;28;20169;-82
2021/09/24 08:56:36;;;;;;;7.43;1.40;;;18.50;59.60;;;;;;5063688;28;20158;-82
2021/09/24 08:59:02;;;;;;;6.50;1.17;;;18.50;59.70;;;;;;5056587;28;20161;-82
2021/09/24 09:01:27;;;;;;;9.18;1.83;;;18.50;59.40;;;;;;5056337;28;20241;-81
2021/09/24 09:03:55;;;;;;;7.35;1.48;;;18.50;59.50;;;;;;5059264;28;20205;-81
2021/09/24 09:06:21;;;;;;;2.90;1.02;;;18.50;59.90;;;;;;5056815;28;20158;-81
2021/09/24 09:08:47;;;;;;;6.00;1.40;;;18.50;59.40;;;;;;5055562;28;20154;-81
2021/09/24 09:11:19;;;;;;;8.75;1.58;;;18.50;59.70;;;;;;5061237;28;20252;-81
2021/09/24 09:13:56;;;;;;;11.57;1.70;;;18.60;59.90;;;;;;5048895;28;20177;-83
2021/09/24 09:16:29;;;;;;;5.05;1.30;;;18.50;59.40;;;;;;5066817;28;20180;-82
2021/09/24 09:19:17;;;;;;;6.85;1.23;;;18.50;59.30;;;;;;5045678;28;20261;-82
2021/09/24 09:21:44;;;;;;;5.80;1.30;;;18.60;59.00;;;;;;5055723;28;20163;-81
2021/09/24 09:24:16;;;;;;;5.10;1.65;;;18.60;59.30;;;;;;5058164;28;20161;-81
2021/09/24 09:26:44;;;;;;;8.82;1.60;;;18.60;59.20;;;;;;5058453;28;20150;-80
2021/09/24 09:29:10;;;;;;;6.05;1.20;;;18.60;60.10;;;;;;5057947;28;20170;-84
2021/09/24 09:31:36;;;;;;;9.13;1.30;;;18.50;59.20;;;;;;5059063;28;20178;-83
2021/09/24 09:34:05;;;;;;;4.82;1.33;;;18.50;59.50;;;;;;5060208;28;20162;-81
2021/09/24 09:36:33;;;;;;;4.03;1.00;;;18.50;59.20;;;;;;5043691;28;20212;-84
2021/09/24 09:39:12;;;;;;;7.28;1.38;;;18.60;59.10;;;;;;5046557;28;20169;-83
2021/09/24 09:41:54;;;;;;;4.05;1.30;;;18.60;59.50;;;;;;5047263;28;20177;-81
2021/09/24 09:44:29;;;;;;;3.35;1.00;;;18.50;59.20;;;;;;5045102;28;20169;-82
2021/09/24 09:46:55;;;;;;;6.93;1.30;;;18.60;59.80;;;;;;5054032;28;20226;-81
2021/09/24 09:49:23;;;;;;;4.47;1.40;;;18.50;59.90;;;;;;5063788;28;20170;-81
2021/09/24 09:51:49;;;;;;;7.18;1.23;;;18.50;59.70;;;;;;5079563;28;20181;-81
2021/09/24 09:54:30;;;;;;;3.88;1.13;;;18.60;59.60;;;;;;5078731;28;20299;-80
2021/09/24 09:57:14;;;;;;;4.60;1.33;;;18.60;59.60;;;;;;5077614;28;20235;-79
2021/09/24 09:59:39;;;;;;;3.58;1.30;;;18.60;59.50;;;;;;5076695;28;20232;-79
2021/09/24 10:02:18;;;;;;;2.25;1.00;;;18.60;59.30;;;;;;5075888;28;20189;-80
2021/09/24 10:04:45;;;;;;;3.97;1.00;;;18.60;59.50;;;;;;5080524;28;20170;-80
2021/09/24 10:07:15;;;;;;;3.42;1.17;;;18.60;59.70;;;;;;5080309;28;20157;-80
2021/09/24 10:09:41;;;;;;;2.55;1.33;;;18.60;59.80;;;;;;5081250;28;20208;-81
2021/09/24 10:12:23;;;;;;;6.28;1.10;;;18.60;60.10;;;;;;5082746;28;20721;-79
2021/09/24 10:14:51;;;;;;;2.80;1.10;;;18.60;59.90;;;;;;5065681;28;20157;-81
2021/09/24 10:17:17;;;;;;;6.72;1.50;;;18.60;59.90;;;;;;5070650;28;20169;-81
2021/09/24 10:19:43;;;;;;;1.67;1.10;;;18.60;59.70;;;;;;5072859;28;20161;-82
2021/09/24 10:22:09;;;;;;;9.95;1.33;;;18.60;60.00;;;;;;5088159;28;20165;-81
2021/09/24 10:24:35;;;;;;;9.32;1.60;;;18.60;59.80;;;;;;5071406;28;20173;-82
2021/09/24 10:27:03;;;;;;;7.05;1.40;;;18.60;60.10;;;;;;5090514;28;20208;-81
2021/09/24 10:29:30;;;;;;;9.63;1.42;;;18.50;60.10;;;;;;5064602;28;20195;-81
2021/09/24 10:31:56;;;;;;;3.95;1.25;;;18.50;60.60;;;;;;5035697;28;20217;-82
2021/09/24 10:34:28;;;;;;;4.50;1.20;;;18.60;60.70;;;;;;5033688;28;20176;-80
2021/09/24 10:36:55;;;;;;;5.78;1.70;;;18.50;60.50;;;;;;5068867;28;20170;-83
2021/09/24 10:39:45;;;;;;;9.07;1.90;;;18.50;61.80;;;;;;5067495;28;20150;-81
2021/09/24 10:42:40;;;;;;;3.97;1.55;;;18.50;62.00;;;;;;5067876;28;20189;-84
2021/09/24 10:45:31;;;;;;;8.73;1.98;;;18.50;62.60;;;;;;5064575;28;20165;-79
2021/09/24 10:48:02;;;;;;;4.28;1.20;;;18.40;62.40;;;;;;5048975;28;20166;-82
2021/09/24 10:50:50;;;;;;;3.83;1.60;;;18.40;62.40;;;;;;5065948;28;20164;-81
2021/09/24 10:53:18;;;;;;;7.28;1.60;;;18.40;61.90;;;;;;5068068;28;20242;-81
2021/09/24 10:56:21;;;;;;;6.63;1.75;;;18.40;61.90;;;;;;5077179;28;20229;-84
2021/09/24 11:07:37;;;;;;;6.85;1.40;;;18.40;62.70;;;;;;4980789;28;20227;-80
2021/09/24 11:10:05;;;;;;;4.85;1.60;;;18.50;63.00;;;;;;4983647;28;20161;-80
2021/09/24 11:12:30;;;;;;;4.95;1.20;;;18.40;63.60;;;;;;4982598;28;20192;-80
2021/09/24 11:15:12;;;;;;;2.28;1.40;;;18.40;62.80;;;;;;4983518;28;20187;-81
2021/09/24 11:17:41;;;;;;;3.47;1.30;;;18.40;63.90;;;;;;4963844;28;20161;-82
2021/09/24 11:20:26;;;;;;;2.35;1.05;;;18.40;63.80;;;;;;4976063;28;20149;-84
2021/09/24 11:22:52;;;;;;;2.53;1.33;;;18.30;62.90;;;;;;4965531;28;20164;-82
2021/09/24 11:25:18;;;;;;;7.47;2.00;;;18.30;64.30;;;;;;4978322;28;20161;-83
2021/09/24 11:27:45;;;;;;;7.85;1.90;;;18.30;65.10;;;;;;4975484;28;20256;-82
2021/09/24 11:30:15;;;;;;;6.72;1.70;;;18.40;66.30;;;;;;4961552;28;20180;-83
2021/09/24 11:32:43;;;;;;;4.90;1.52;;;18.40;65.30;;;;;;4965183;28;20200;-82
2021/09/24 11:35:11;;;;;;;6.95;1.75;;;18.40;65.10;;;;;;4949603;28;20165;-82
2021/09/24 11:37:39;;;;;;;4.53;1.45;;;18.40;65.60;;;;;;4964518;28;20157;-80
2021/09/24 11:40:11;;;;;;;5.13;1.70;;;18.40;65.80;;;;;;4946770;28;20203;-82
2021/09/24 11:42:38;;;;;;;4.88;1.50;;;18.40;65.90;;;;;;4962785;28;20161;-81
2021/09/24 11:45:07;;;;;;;10.27;1.90;;;18.40;65.90;;;;;;4960101;28;20149;-81
2021/09/24 11:47:39;;;;;;;3.33;1.40;;;18.40;67.30;;;;;;4978050;28;20216;-82
2021/09/24 11:50:14;;;;;;;8.35;1.75;;;18.40;66.20;;;;;;4975481;28;20161;-82
2021/09/24 11:52:44;;;;;;;7.05;1.77;;;18.40;66.70;;;;;;4961252;28;20279;-81
2021/09/24 11:55:20;;;;;;;4.65;1.45;;;18.40;66.10;;;;;;4977618;28;20155;-82
2021/09/24 11:58:06;;;;;;;9.85;1.85;;;18.40;65.10;;;;;;4978157;28;20173;-79
2021/09/24 12:00:36;;;;;;;6.22;1.60;;;18.50;66.20;;;;;;4961391;28;20669;-79
2021/09/24 12:03:17;;;;;;;6.10;2.20;;;18.40;67.30;;;;;;4958176;28;20165;-82
2021/09/24 12:05:57;;;;;;;4.18;1.75;;;18.40;68.20;;;;;;4960698;28;20220;-79
2021/09/24 12:08:26;;;;;;;6.00;2.00;;;18.40;68.50;;;;;;4941661;28;20223;-80
2021/09/24 12:11:02;;;;;;;5.45;1.90;;;18.40;68.50;;;;;;4957606;28;20188;-80
2021/09/24 12:13:38;;;;;;;6.30;1.83;;;18.40;68.20;;;;;;4973276;28;20168;-81
2021/09/24 12:16:05;;;;;;;5.82;1.77;;;18.40;67.50;;;;;;4943423;28;20172;-81
2021/09/24 12:18:52;;;;;;;4.95;1.52;;;18.40;66.60;;;;;;4953072;29;20223;-81
2021/09/24 12:21:22;;;;;;;5.75;1.77;;;18.40;66.90;;;;;;4923262;29;20180;-81
2021/09/24 12:23:50;;;;;;;4.07;1.50;;;18.40;67.20;;;;;;4965464;28;20570;-82
2021/09/24 12:26:18;;;;;;;4.70;1.55;;;18.40;67.00;;;;;;4959066;28;20157;-81
2021/09/24 12:28:56;;;;;;;5.03;1.50;;;18.40;66.50;;;;;;4944769;28;20164;-84
2021/09/24 12:31:35;;;;;;;5.20;1.40;;;18.50;66.90;;;;;;4961924;28;20290;-83
2021/09/24 12:34:01;;;;;;;4.80;1.55;;;18.40;66.00;;;;;;4950708;29;20232;-79
2021/09/24 12:36:26;;;;;;;3.78;1.20;;;18.40;66.60;;;;;;4938342;29;20161;-81
2021/09/24 12:38:54;;;;;;;3.92;1.52;;;18.50;65.80;;;;;;4936270;28;20185;-83
2021/09/24 12:41:20;;;;;;;3.53;1.40;;;18.40;66.70;;;;;;4960436;28;20185;-80
2021/09/24 12:43:46;;;;;;;3.15;1.20;;;18.40;66.80;;;;;;4938044;28;20172;-82
2021/09/24 12:46:12;;;;;;;2.35;1.20;;;18.50;66.60;;;;;;4975398;28;20176;-80
2021/09/24 12:48:41;;;;;;;5.70;1.52;;;18.40;66.70;;;;;;4936264;29;20284;-81
2021/09/24 12:51:14;;;;;;;5.35;1.67;;;18.40;66.30;;;;;;4943537;28;20265;-82
2021/09/24 12:53:42;;;;;;;4.32;1.17;;;18.50;66.70;;;;;;4941075;28;20542;-81
2021/09/24 12:56:15;;;;;;;4.63;1.58;;;18.50;66.30;;;;;;4974527;28;20153;-83
2021/09/24 12:58:45;;;;;;;3.90;1.50;;;18.50;66.30;;;;;;4946854;28;20605;-82